KVBG/VBG METAR and TAF weather

Enter ICAO airport designator
Station Type Date Time Source
KVBG METAR 2019/12/10 05:58 UTC NOAA

KVBG 100558Z AUTO 04006KT 9SM CLR 13/06 A3015 RMK AO2 SLP213 T01260064 10143 20102 50009


Station Type Date Time Source
KVBG Decoded METAR 2019/12/10 05:58 UTC NOAA

Lompoc, Vandenberg Air Force Base, CA, United States (KVBG) 34-43-46N 120-34-36W 121M
Dec 10, 2019 - 12:58 AM EST / 2019.12.10 0558 UTC
Wind: from the NE (040 degrees) at 7 MPH (6 KT):0
Visibility: 9 mile(s):0
Sky conditions: clear
Temperature: 54.7 F (12.6 C)
Dew Point: 43.5 F (6.4 C)
Relative Humidity: 65%
Pressure (altimeter): 30.15 in. Hg (1020 hPa)
Pressure tendency: 0.03 inches (0.9 hPa) higher than three hours ago
ob: KVBG 100558Z AUTO 04006KT 9SM CLR 13/06 A3015 RMK AO2 SLP213 T01260064 10143 20102 50009
cycle: 6

Station Type Date Time Source
KVBG TAF 2019/12/10 01:06 UTC NOAA

TAF COR KVBG 100102Z 1001/1105 34009KT 9999 SKC QNH3008INS
BECMG 1003/1004 VRB06KT 9999 FEW200 QNH3010INS
BECMG 1017/1018 29009KT 9999 SCT250 QNH3012INS
BECMG 1020/1021 33009KT 9999 FEW020 SCT250 QNH3009INS TX17/1021Z TN09/1012Z LAST NO
AMDS AFT 1001 NEXT 1015

Example: see airport list